»·PEaware :: WAT169 KLAS-KDEN

WAT169 :: KLAS-KDEN

FLIGHT INFORMATION

Flight Status: Arrived
Operator: Unknown
More flights by this operator :: More flights under this callsign
Pilot: Marty P. (27464)
Aircraft: BOMBARDIER BD-100 CHALLENGER 300
(CL30)
More flights by this aircraft type
Origin: KLAS McCarran Intl
United States
Destination: KDEN Denver Intl
United States
More flights between these airports :: More routes between these airports
Route: STAAV8 DVC WOLLF CREDE3
File this flight plan on PilotEdge
Remarks:
Altitude:
(Current/Filed)
39,000ft
Speed:
(Current/Filed)
470kts
Departed: 24-Mar-20 02:42 PM
Arrived: 24-Mar-20 04:04 PM
Distance/Time
Traveled:
545nm/1:21
Distance/Time
To Go:
Arrived

Flight Plot

Page will automatically refresh every two minutes.

Flight plan parsing failed; only flown route is shown


Map Options




Map Legend


Flown Route
Filed Route
Departure Airport
Arrival Airport
Navaid (VOR, NDB)
Fix

Horizontal Profiles

Position Reports

Time Latitude Longitude Heading Altitude Ground
Speed
24-Mar-20 14:03 36.080776 -115.134965 231 2187ft 0kts
24-Mar-20 14:04 36.080776 -115.134965 231 2187ft 0kts
24-Mar-20 14:05 36.080776 -115.134965 231 2187ft 0kts
24-Mar-20 14:06 36.080776 -115.134965 231 2187ft 0kts
24-Mar-20 14:07 36.080776 -115.134965 231 2187ft 0kts
24-Mar-20 14:08 36.080776 -115.134965 231 2187ft 0kts
24-Mar-20 14:09 36.080776 -115.134965 231 2187ft 0kts
24-Mar-20 14:10 36.080776 -115.134965 231 2187ft 0kts
24-Mar-20 14:11 36.080776 -115.134965 231 2187ft 0kts
24-Mar-20 14:12 36.080776 -115.134965 231 2187ft 0kts
24-Mar-20 14:13 36.080776 -115.134965 231 2187ft 0kts
24-Mar-20 14:13 36.080776 -115.134965 231 2187ft 0kts
24-Mar-20 14:15 36.080776 -115.134965 231 2187ft 0kts
24-Mar-20 14:16 36.080776 -115.134965 231 2187ft 0kts
24-Mar-20 14:16 36.080776 -115.134965 231 2187ft 0kts
24-Mar-20 14:17 36.080776 -115.134965 231 2187ft 0kts
24-Mar-20 14:19 36.080776 -115.134965 231 2187ft 0kts
24-Mar-20 14:19 36.080776 -115.134965 231 2187ft 0kts
24-Mar-20 14:20 36.080776 -115.134965 231 2187ft 0kts
24-Mar-20 14:21 36.080776 -115.134965 231 2187ft 0kts
24-Mar-20 14:22 36.080776 -115.134965 231 2187ft 0kts
24-Mar-20 14:23 36.080776 -115.134965 231 2187ft 0kts
24-Mar-20 14:24 36.080776 -115.134965 231 2187ft 0kts
24-Mar-20 14:25 36.080776 -115.134965 231 2187ft 0kts
24-Mar-20 14:26 36.080776 -115.134965 231 2187ft 0kts
24-Mar-20 14:27 36.080774 -115.134968 231 2188ft 0kts
24-Mar-20 14:28 36.080984 -115.134586 235 2188ft 2kts
24-Mar-20 14:29 36.081321 -115.133971 235 2188ft 2kts
24-Mar-20 14:30 36.081660 -115.133351 235 2188ft 2kts
24-Mar-20 14:31 36.081936 -115.132925 179 2188ft 1kts
24-Mar-20 14:32 36.081952 -115.132925 179 2187ft 0kts
24-Mar-20 14:33 36.081817 -115.132928 181 2187ft 0kts
24-Mar-20 14:34 36.081740 -115.132931 181 2187ft 0kts
24-Mar-20 14:35 36.080884 -115.132930 180 2188ft 8kts
24-Mar-20 14:36 36.078231 -115.132257 78 2187ft 12kts
24-Mar-20 14:37 36.078281 -115.127452 89 2187ft 15kts
24-Mar-20 14:38 36.077742 -115.121904 128 2187ft 11kts
24-Mar-20 14:39 36.077420 -115.121426 139 2187ft 0kts
24-Mar-20 14:40 36.077415 -115.121422 140 2187ft 0kts
24-Mar-20 14:41 36.076387 -115.128659 269 2188ft 108kts
24-Mar-20 14:42 36.078338 -115.191539 263 3650ft 202kts
24-Mar-20 14:43 36.077073 -115.264173 276 7590ft 230kts
24-Mar-20 14:44 36.138787 -115.294683 15 11323ft 280kts
24-Mar-20 14:45 36.188988 -115.208347 68 13449ft 366kts
24-Mar-20 14:46 36.197254 -115.080143 91 16706ft 390kts
24-Mar-20 14:47 36.198805 -114.940763 91 19047ft 428kts
24-Mar-20 14:48 36.200215 -114.793554 91 19054ft 425kts
24-Mar-20 14:49 36.198905 -114.649601 93 19053ft 411kts
24-Mar-20 14:50 36.197204 -114.505457 93 20767ft 428kts
24-Mar-20 14:51 36.195229 -114.354293 93 23065ft 451kts
24-Mar-20 14:52 36.199859 -114.197965 83 24975ft 475kts
24-Mar-20 14:53 36.219136 -114.032278 83 26852ft 491kts
24-Mar-20 14:54 36.239025 -113.863216 82 28624ft 506kts
24-Mar-20 14:55 36.259428 -113.688046 82 30093ft 523kts
24-Mar-20 14:56 36.280203 -113.507428 82 31489ft 537kts
24-Mar-20 14:57 36.300997 -113.323962 83 32782ft 550kts
24-Mar-20 14:58 36.341903 -113.147529 62 34723ft 535kts
24-Mar-20 14:59 36.403712 -112.978868 61 35872ft 541kts
24-Mar-20 15:00 36.465607 -112.811293 61 37950ft 521kts
24-Mar-20 15:01 36.526335 -112.646131 62 39331ft 514kts
24-Mar-20 15:02 36.587924 -112.477849 62 39188ft 551kts
24-Mar-20 15:03 36.651897 -112.302026 63 39163ft 580kts
24-Mar-20 15:04 36.719174 -112.115969 63 39167ft 601kts
24-Mar-20 15:05 36.787283 -111.926469 62 39114ft 595kts
24-Mar-20 15:06 36.854140 -111.739383 62 39101ft 593kts
24-Mar-20 15:07 36.920979 -111.551143 62 39105ft 593kts
24-Mar-20 15:08 36.987565 -111.362444 62 39110ft 592kts
24-Mar-20 15:09 37.052192 -111.178185 63 39090ft 592kts
24-Mar-20 15:10 37.116879 -110.992579 63 39103ft 591kts
24-Mar-20 15:11 37.181742 -110.805349 63 39136ft 590kts
24-Mar-20 15:12 37.246699 -110.616642 63 39149ft 589kts
24-Mar-20 15:13 37.311288 -110.427757 63 39159ft 587kts
24-Mar-20 15:14 37.374445 -110.241994 64 39139ft 586kts
24-Mar-20 15:15 37.437848 -110.054268 64 39160ft 586kts
24-Mar-20 15:16 37.500903 -109.866349 63 39194ft 584kts
24-Mar-20 15:17 37.563807 -109.677719 63 39199ft 584kts
24-Mar-20 15:18 37.626390 -109.488790 63 39204ft 583kts
24-Mar-20 15:19 37.687543 -109.303057 64 39185ft 583kts
24-Mar-20 15:20 37.748792 -109.115754 64 39183ft 583kts
24-Mar-20 15:21 37.811566 -108.928425 56 39156ft 579kts
24-Mar-20 15:22 37.894904 -108.755391 52 39151ft 575kts
24-Mar-20 15:23 37.978443 -108.583790 52 39148ft 574kts
24-Mar-20 15:24 38.061732 -108.411879 52 39157ft 570kts
24-Mar-20 15:25 38.135842 -108.258149 53 39146ft 571kts
24-Mar-20 15:26 38.215067 -108.092974 53 39128ft 572kts
24-Mar-20 15:27 38.299274 -107.916519 53 39110ft 571kts
24-Mar-20 15:28 38.380829 -107.744719 53 39098ft 570kts
24-Mar-20 15:29 38.461369 -107.572932 54 37093ft 554kts
24-Mar-20 15:30 38.532618 -107.414490 53 36895ft 486kts
24-Mar-20 15:31 38.597279 -107.270216 53 34056ft 502kts
24-Mar-20 15:32 38.666958 -107.116517 53 30889ft 536kts
24-Mar-20 15:33 38.742971 -106.954733 53 28919ft 533kts
24-Mar-20 15:34 38.818123 -106.793060 56 26943ft 526kts
24-Mar-20 15:35 38.888458 -106.631973 56 25512ft 492kts
24-Mar-20 15:36 38.950598 -106.488868 56 23247ft 446kts
24-Mar-20 15:37 39.011440 -106.348389 56 23110ft 458kts
24-Mar-20 15:38 39.073091 -106.212252 55 23085ft 429kts
24-Mar-20 15:39 39.132179 -106.080488 55 23145ft 433kts
24-Mar-20 15:40 39.190452 -105.948592 55 21367ft 416kts
24-Mar-20 15:41 39.246554 -105.821120 56 19256ft 401kts
24-Mar-20 15:42 39.300891 -105.697125 56 18203ft 394kts
24-Mar-20 15:43 39.352807 -105.578556 56 18203ft 368kts
24-Mar-20 15:44 39.403992 -105.463284 50 17556ft 375kts
24-Mar-20 15:45 39.462099 -105.354392 51 16050ft 342kts
24-Mar-20 15:46 39.514768 -105.254426 52 15699ft 340kts
24-Mar-20 15:47 39.567722 -105.153394 52 15396ft 335kts
24-Mar-20 15:48 39.619673 -105.053959 53 14288ft 329kts
24-Mar-20 15:49 39.670400 -104.956399 54 13546ft 324kts
24-Mar-20 15:50 39.721841 -104.860114 36 13495ft 313kts
24-Mar-20 15:51 39.796519 -104.841512 356 13159ft 261kts
24-Mar-20 15:52 39.868814 -104.839766 356 11663ft 259kts
24-Mar-20 15:53 39.940606 -104.839321 357 9231ft 287kts
24-Mar-20 15:54 40.016767 -104.839991 356 8998ft 246kts
24-Mar-20 15:55 40.081900 -104.838147 20 8017ft 212kts
24-Mar-20 15:56 40.094806 -104.772374 87 8019ft 194kts
24-Mar-20 15:57 40.093722 -104.702984 125 8012ft 192kts
24-Mar-20 15:58 40.051192 -104.661857 150 8017ft 189kts
24-Mar-20 15:59 40.001163 -104.658528 182 8018ft 178kts
24-Mar-20 16:00 39.952253 -104.659091 181 7246ft 164kts
24-Mar-20 16:01 39.909586 -104.659575 180 6418ft 151kts
24-Mar-20 16:02 39.867814 -104.660086 180 5611ft 147kts
24-Mar-20 16:03 39.843060 -104.660481 185 5441ft 14kts
24-Mar-20 16:05 39.840173 -104.663272 254 5440ft 11kts

Navigation Log

Ident Type
Flight plan parsing failed, navigation log unavailable